Blachly, Oregon
Current Conditions -  °F | °C
As of 3:54 PM on Friday 21 Nov 2014 (Local Time) from KEUG Reporting Station
Light Rain Light Rain  
Wind Chill: 53°   Ceiling: 2200
Heat Index: 53°   Visibility: 4mi
Dew Point: 50°   Wind: 20mph
Humidity: 89%   Direction: 190°S
Pressure: 29.62"   Gusts: 26mph
Location:  44.19°N, 123.53°W
Report Text: KEUG 212354Z 19017G23KT 4SM -RA BR OVC022 12/10 A2962 RMK AO2 SLP032 P0001 60013 T01170100 10117 20100 56024
Loading
Personal Weather Stations






























Interactive Weather Map New forecast layout! Learn more

10-Day Weather Forecast

Advertisements
Track Severe Weather on mobile